ヤクーツク の空港の天気 - METARとTAF

ヤクーツク空港 ( UEEE / YKS ) - ロシア ヤクーツク
飛行場実況気象(Metar)
観測時間03/23 19:00 YAKT (03/23 10:00 UTC)
風向・風速西 2m/s
視程5000m
天気現象弱いしゅう雪
全天の4割程度の雲 雲底高度 760m
気温-10℃
湿度85%
気圧1016hPa
METARUEEE 231000Z 26002MPS 5000 -SHSN SCT025CB M10/M12 Q1016 R23L/490150 NOSIG RMK QFE753
過去の天気等 Google飛行場航空写真 Wunderground天気予報

過去48時間のMETAR

飛行場予報(TAF)
発表時間: 3/23 17:00 YAKT (3/23 08:00 UTC)
予報対象時間: 23日18時 YAKT ~ 25日0時 YAKT
風向・風速西 5m/s 瞬間風速 10m/s
視程5000m
天気現象弱いしゅう雪
全天の4割程度の積乱雲 雲底高度 610m
全天を覆う雲 雲底高度 2130m
23日18時 YAKT ~ 24日6時 YAKT に一時的に
視程500m
天気現象強いしゅう雪
全天を覆う雲 鉛直視程 90m
TAF UEEE 230800Z 2309/2415 26005G10MPS 5000 -SHSN SCT020CB OVC070
TEMPO 2309/2321 0500 +SHSN VV003